WetterOnline ( https://www.wetteronline.de )

Wetter aktuell Klippeneck

Aktuelles Wetter: Klippeneck (975m)

6-stündlich | Neueste Meldungen
Ortszeit Temperatur Wetter
So, 03.03. 7:00 7.1° C bedeckt
So, 03.03. 1:00 5.6° C bedeckt
Sa, 02.03. 19:00 6.7° C bedeckt
Sa, 02.03. 13:00 8.6° C wolkig
Sa, 02.03. 7:00 1.7° C bewölkt
Sa, 02.03. 1:00 3.0° C Nebel
Fr, 01.03. 19:00 3.5° C wolkig
Fr, 01.03. 13:00 4.2° C bewölkt
Ortszeit Temperatur Wetter
So, 03.03. 12:00 9.3° C bedeckt
So, 03.03. 11:50 9.3° C bedeckt
So, 03.03. 11:40 9.3° C bedeckt
So, 03.03. 11:30 9.1° C bedeckt
So, 03.03. 11:20 9.1° C bedeckt
So, 03.03. 11:10 9.0° C bedeckt
So, 03.03. 11:00 8.9° C bedeckt
So, 03.03. 10:30 7.9° C bedeckt
So, 03.03. 10:00 7.3° C bedeckt
So, 03.03. 9:30 6.8° C bedeckt
So, 03.03. 9:00 6.8° C bedeckt
Ortszeit Relative Feuchte Sichtweite
So, 03.03. 7:00 54% >70 km
So, 03.03. 1:00 77% 24 km
Sa, 02.03. 19:00 80% 40 km
Sa, 02.03. 13:00 59% >70 km
Sa, 02.03. 7:00 90% 13 km
Sa, 02.03. 1:00 89% 19 km
Fr, 01.03. 19:00 88% 35 km
Fr, 01.03. 13:00 91% 17 km
Ortszeit Relative Feuchte Sichtweite
So, 03.03. 12:00 44% >70 km
So, 03.03. 11:50 44% -
So, 03.03. 11:40 45% -
So, 03.03. 11:30 47% 45 km
So, 03.03. 11:20 47% -
So, 03.03. 11:10 46% -
So, 03.03. 11:00 47% 60 km
So, 03.03. 10:30 51% 60 km
So, 03.03. 10:00 54% 60 km
So, 03.03. 9:30 56% 65 km
So, 03.03. 9:00 56% >70 km
Ortszeit Niederschlagsmenge Niederschlagsart
So, 03.03. 7:00 0.0 l/m2 in 12 Std. -
So, 03.03. 1:00 0.0 l/m2 in 6 Std. -
Sa, 02.03. 19:00 0.0 l/m2 in 12 Std. -
Sa, 02.03. 13:00 0.0 l/m2 in 6 Std. -
Sa, 02.03. 7:00 0.0 l/m2 in 12 Std. -
Sa, 02.03. 1:00 0.0 l/m2 in 6 Std. -
Fr, 01.03. 19:00 2 l/m2 in 12 Std. Regen
Fr, 01.03. 13:00 2 l/m2 in 6 Std. Regen
Ortszeit Niederschlagsmenge Niederschlagsart
So, 03.03. 12:00 0.0 l/m2 in 1 Std. -
So, 03.03. 11:50 keine Meldung -
So, 03.03. 11:40 keine Meldung -
So, 03.03. 11:30 0.0 l/m2 in 30 Min -
So, 03.03. 11:20 keine Meldung -
So, 03.03. 11:10 keine Meldung -
So, 03.03. 11:00 0.0 l/m2 in 1 Std. -
So, 03.03. 10:30 0.0 l/m2 in 30 Min -
So, 03.03. 10:00 0.0 l/m2 in 1 Std. -
So, 03.03. 9:30 0.0 l/m2 in 30 Min -
So, 03.03. 9:00 0.0 l/m2 in 1 Std. -
Ortszeit Stärke Spitze Richtung
km/h Bft. km/h Grad Sektor
So, 03.03. 7:00 24 4 31 110° O
So, 03.03. 1:00 24 4 48 110° O
Sa, 02.03. 19:00 33 5 44 90° O
Sa, 02.03. 13:00 7 2 29 110° O
Sa, 02.03. 7:00 15 3 30 140° SO
Sa, 02.03. 1:00 17 3 41 170° S
Fr, 01.03. 19:00 11 2 22 160° S
Fr, 01.03. 13:00 9 2 22 200° S
Ortszeit Stärke Spitze Richtung
km/h Bft. km/h Grad Sektor
So, 03.03. 12:00 28 4 37 110° O
So, 03.03. 11:50 28 4 - 110° O
So, 03.03. 11:40 26 4 - 110° O
So, 03.03. 11:30 25 4 36 110° O
So, 03.03. 11:20 25 4 - 110° O
So, 03.03. 11:10 26 4 - 120° SO
So, 03.03. 11:00 29 5 40 110° O
So, 03.03. 10:30 28 4 41 120° SO
So, 03.03. 10:00 26 4 37 120° SO
So, 03.03. 9:30 24 4 31 120° SO
So, 03.03. 9:00 25 4 32 120° SO
Ortszeit Untergrenze Bedeckung Gattung
total tief tief mittel hoch
So, 03.03. 7:00 2400 m 8/8 8/8 - - -
So, 03.03. 1:00 3000 m 8/8 8/8 - - -
Sa, 02.03. 19:00 3300 m 8/8 8/8 - - -
Sa, 02.03. 13:00 5400 m 6/8 6/8 - - -
Sa, 02.03. 7:00 5700 m 8/8 7/8 - - -
Sa, 02.03. 1:00 4200 m 8/8 8/8 - - -
Fr, 01.03. 19:00 1800 m 8/8 1/8 - - -
Fr, 01.03. 13:00 180 m 7/8 7/8 - - -
Ortszeit Bedeckungsgrad in Achtel und Wolkenuntergrenze
So, 03.03. 12:00 8(3900m) 8(5100m) 8(6300m)
So, 03.03. 11:50 8(3900m) 8(5100m) 8(6300m)
So, 03.03. 11:40 8
So, 03.03. 11:30 1(3300m) 8(4200m) 8(5400m)
So, 03.03. 11:20 1(3300m) 8(4200m) 8(5400m)
So, 03.03. 11:10 8
So, 03.03. 11:00 8(3300m) 8(5100m)
So, 03.03. 10:30 8(3000m)
So, 03.03. 10:00 8(3000m)
So, 03.03. 9:30 8(3000m) 8(4500m)
So, 03.03. 9:00 8(3300m)
Ortszeit Stationsdruck (hPa) Tendenz (hPa in 3 Std.)
So, 03.03. 7:00 888 - 0,5
So, 03.03. 1:00 889 - 0,4
Sa, 02.03. 19:00 890 - 1,2
Sa, 02.03. 13:00 893 - 1,0
Sa, 02.03. 7:00 894 + 0,1
Sa, 02.03. 1:00 894 - 0,7
Fr, 01.03. 19:00 895 0,0
Fr, 01.03. 13:00 896 - 0,4
Ortszeit Stationsdruck (hPa) Tendenz (hPa in 3 Std.)
So, 03.03. 12:00 888 0,0
So, 03.03. 11:50 888 keine Meldung
So, 03.03. 11:40 888 keine Meldung
So, 03.03. 11:30 888 0,0
So, 03.03. 11:20 888 keine Meldung
So, 03.03. 11:10 888 keine Meldung
So, 03.03. 11:00 888 - 0,1
So, 03.03. 10:30 888 0,0
So, 03.03. 10:00 888 + 0,1
So, 03.03. 9:30 888 - 0,2
So, 03.03. 9:00 888 - 0,1
Ortszeit Schneehöhe (cm)
So, 03.03. 7:00 0
So, 03.03. 1:00 0
Sa, 02.03. 19:00 0
Sa, 02.03. 13:00 0
Sa, 02.03. 7:00 0
Sa, 02.03. 1:00 0
Fr, 01.03. 19:00 0
Fr, 01.03. 13:00 0
Ortszeit Schneehöhe (cm)
So, 03.03. 12:00 0
So, 03.03. 11:50 0
So, 03.03. 11:40 -
So, 03.03. 11:30 0
So, 03.03. 11:20 0
So, 03.03. 11:10 -
So, 03.03. 11:00 0
So, 03.03. 10:30 0
So, 03.03. 10:00 0
So, 03.03. 9:30 0
So, 03.03. 9:00 0
Link zu dieser Seite / Seite empfehlen

Das Wetter in ...